Time;durP1;ratioP1;P1;durP2;ratioP2;P2;SDS_P1;SDS_P2;PMS_P1;PMS_P2;Temp;Humidity;BMP_temperature;BMP_pressure;BME280_temperature;BME280_humidity;BME280_pressure;Samples;Min_cycle;Max_cycle;Signal;HPM_P1;HPM_P2
2022/06/07 00:01:33;;;;;;;3.80;3.50;;;;;;;16.72;100.00;96641.81;5048251;28;20718;-55
2022/06/07 00:04:02;;;;;;;4.55;3.28;;;;;;;16.67;100.00;96633.50;5045638;28;20199;-54
2022/06/07 00:06:30;;;;;;;3.53;3.30;;;;;;;16.73;100.00;96633.63;5049699;28;20198;-54
2022/06/07 00:08:57;;;;;;;3.85;3.42;;;;;;;16.80;100.00;96639.88;5048704;28;20607;-56
2022/06/07 00:11:27;;;;;;;3.05;2.95;;;;;;;16.73;100.00;96638.97;5054103;28;20217;-56
2022/06/07 00:13:56;;;;;;;3.25;3.05;;;;;;;16.70;100.00;96642.00;5047084;28;20212;-54
2022/06/07 00:16:22;;;;;;;3.20;2.95;;;;;;;16.66;100.00;96637.19;5047743;28;20657;-53
2022/06/07 00:18:49;;;;;;;3.10;3.00;;;;;;;16.68;100.00;96630.69;5045740;28;20659;-54
2022/06/07 00:21:15;;;;;;;4.25;3.15;;;;;;;16.73;100.00;96632.78;5048049;28;20294;-55
2022/06/07 00:23:42;;;;;;;3.53;3.22;;;;;;;16.72;100.00;96636.47;5046224;28;20298;-54
2022/06/07 00:26:10;;;;;;;3.13;2.92;;;;;;;16.73;100.00;96633.63;5049850;28;20268;-53
2022/06/07 00:28:39;;;;;;;3.05;2.85;;;;;;;16.76;100.00;96632.41;5047878;28;20281;-53
2022/06/07 00:31:05;;;;;;;3.40;2.92;;;;;;;16.76;100.00;96632.41;5055147;28;20588;-53
2022/06/07 00:33:32;;;;;;;3.25;2.70;;;;;;;16.74;100.00;96634.44;5051289;28;20231;-54
2022/06/07 00:35:59;;;;;;;2.90;2.70;;;;;;;16.72;100.00;96626.59;5045992;28;20298;-54
2022/06/07 00:38:26;;;;;;;3.58;2.88;;;;;;;16.73;100.00;96635.44;5045785;28;20291;-54
2022/06/07 00:40:53;;;;;;;3.33;3.05;;;;;;;16.74;100.00;96635.28;5045575;28;20263;-54
2022/06/07 00:43:23;;;;;;;3.35;3.15;;;;;;;16.79;100.00;96632.88;5052511;28;20318;-53
2022/06/07 00:45:51;;;;;;;3.70;3.40;;;;;;;16.79;100.00;96632.88;5061624;28;20242;-52
2022/06/07 00:48:18;;;;;;;3.22;3.03;;;;;;;16.78;100.00;96639.25;5064545;28;20172;-53
2022/06/07 00:50:49;;;;;;;3.60;3.30;;;;;;;16.82;100.00;96637.88;5060021;28;20191;-54
2022/06/07 00:53:26;;;;;;;5.25;3.40;;;;;;;16.86;100.00;96639.16;5057404;28;20199;-55
2022/06/07 00:55:53;;;;;;;3.45;3.20;;;;;;;16.89;100.00;96638.81;5050634;28;20285;-53
2022/06/07 00:58:22;;;;;;;3.08;2.97;;;;;;;16.92;100.00;96638.44;5046118;28;20704;-55
2022/06/07 01:00:50;;;;;;;4.03;3.72;;;;;;;16.97;100.00;96629.88;5047311;28;20218;-55
2022/06/07 01:03:20;;;;;;;4.20;3.90;;;;;;;16.97;100.00;96629.06;5050207;28;20286;-55
2022/06/07 01:05:50;;;;;;;4.07;3.80;;;;;;;16.95;100.00;96620.38;5049157;28;20211;-56
2022/06/07 01:11:04;;;;;;;4.10;3.72;;;;;;;16.95;100.00;96617.72;5044377;28;20712;-58
2022/06/07 01:13:34;;;;;;;4.25;3.95;;;;;;;16.92;100.00;96617.09;5048325;28;20282;-56
2022/06/07 01:16:06;;;;;;;3.95;3.65;;;;;;;16.93;100.00;96615.25;5045853;28;20568;-57
2022/06/07 01:18:34;;;;;;;4.18;3.70;;;;;;;16.95;100.00;96609.69;5044606;28;20196;-58
2022/06/07 01:21:18;;;;;;;3.70;3.40;;;;;;;16.92;100.00;96601.06;5053661;28;20290;-58
2022/06/07 01:23:48;;;;;;;4.38;3.97;;;;;;;16.92;100.00;96609.06;5049398;28;20225;-59
2022/06/07 01:26:15;;;;;;;3.97;3.70;;;;;;;16.92;100.00;96600.22;5049256;28;20528;-57
2022/06/07 01:28:44;;;;;;;3.80;3.60;;;;;;;16.87;100.00;96600.75;5051414;28;20298;-58
2022/06/07 01:31:11;;;;;;;4.15;3.85;;;;;;;16.84;100.00;96592.28;5048005;28;20687;-58
2022/06/07 01:33:38;;;;;;;7.88;3.70;;;;;;;16.81;100.00;96592.66;5051130;28;20286;-57
2022/06/07 01:36:09;;;;;;;4.10;3.70;;;;;;;16.77;100.00;96600.19;5052179;28;20206;-58
2022/06/07 01:38:38;;;;;;;3.95;3.58;;;;;;;16.74;100.00;96597.06;5053333;28;20208;-57
2022/06/07 01:43:49;;;;;;;3.60;3.30;;;;;;;16.70;100.00;96593.09;5057431;28;20244;-57
2022/06/07 01:46:16;;;;;;;3.53;3.22;;;;;;;16.66;100.00;96595.28;5052321;28;20207;-58
2022/06/07 01:48:43;;;;;;;3.30;3.10;;;;;;;16.60;100.00;96590.69;5051287;28;20285;-56
2022/06/07 01:51:11;;;;;;;3.30;3.10;;;;;;;16.65;100.00;96582.94;5047837;28;20703;-57
2022/06/07 01:53:40;;;;;;;3.42;3.20;;;;;;;16.55;100.00;96590.38;5051248;28;20281;-58
2022/06/07 01:56:10;;;;;;;3.83;3.38;;;;;;;16.53;100.00;96594.22;5051999;28;20218;-57
2022/06/07 01:58:38;;;;;;;3.70;3.40;;;;;;;16.45;100.00;96589.78;5054380;28;20200;-57
2022/06/07 02:01:06;;;;;;;3.35;3.15;;;;;;;16.54;100.00;96580.72;5051878;28;20302;-57
2022/06/07 02:03:35;;;;;;;3.63;3.17;;;;;;;16.53;100.00;96578.22;5054891;28;20226;-55
2022/06/07 02:06:03;;;;;;;3.30;3.05;;;;;;;16.51;100.00;96580.25;5051971;28;20300;-56
2022/06/07 02:08:30;;;;;;;3.45;3.08;;;;;;;16.50;100.00;96587.44;5057600;28;20294;-54
2022/06/07 02:11:05;;;;;;;3.35;3.05;;;;;;;16.44;100.00;96588.13;5049388;28;20286;-53
2022/06/07 02:13:32;;;;;;;3.28;3.00;;;;;;;16.48;100.00;96576.09;5051760;28;20294;-56
2022/06/07 02:16:02;;;;;;;3.03;2.90;;;;;;;16.42;100.00;96576.81;5047232;28;20743;-55
2022/06/07 02:18:28;;;;;;;3.88;3.00;;;;;;;16.48;100.00;96576.09;5048647;28;20199;-55
2022/06/07 02:20:56;;;;;;;2.75;2.47;;;;;;;16.47;100.00;96570.94;5051619;28;20630;-55
2022/06/07 02:23:23;;;;;;;2.80;2.60;;;;;;;16.58;100.00;96566.00;5048066;28;20518;-56
2022/06/07 02:25:57;;;;;;;2.85;2.65;;;;;;;16.50;100.00;96582.09;5052468;28;20206;-55
2022/06/07 02:28:27;;;;;;;2.60;2.40;;;;;;;16.46;100.00;96567.44;5051471;28;20202;-55
2022/06/07 02:30:54;;;;;;;3.43;2.50;;;;;;;16.45;100.00;96563.09;5065361;28;20210;-54
2022/06/07 02:33:22;;;;;;;3.38;2.42;;;;;;;16.33;100.00;96564.56;5072624;28;20207;-54
2022/06/07 02:35:49;;;;;;;2.70;2.50;;;;;;;16.31;100.00;96559.41;5080023;28;20226;-55
2022/06/07 02:38:20;;;;;;;2.13;2.03;;;;;;;16.14;100.00;96567.72;5067806;28;20171;-55
2022/06/07 02:40:48;;;;;;;3.10;2.40;;;;;;;16.10;100.00;96566.41;5072024;28;20176;-57
2022/06/07 02:43:16;;;;;;;2.42;2.33;;;;;;;16.05;100.00;96552.81;5071556;28;20273;-65
2022/06/07 02:45:45;;;;;;;2.90;2.70;;;;;;;15.98;100.00;96559.84;5079358;28;20180;-57
2022/06/07 02:48:11;;;;;;;2.25;2.05;;;;;;;15.96;100.00;96564.53;5079992;28;20245;-56
2022/06/07 02:50:38;;;;;;;2.05;1.95;;;;;;;15.95;100.00;96566.34;5079092;28;20179;-57
2022/06/07 02:53:05;;;;;;;2.33;2.13;;;;;;;16.03;100.00;96560.13;5075396;28;20199;-57
2022/06/07 02:55:33;;;;;;;2.40;2.30;;;;;;;15.99;100.00;96558.81;5049898;28;20234;-56
2022/06/07 02:57:59;;;;;;;2.70;2.50;;;;;;;15.91;100.00;96557.88;5047728;28;20234;-55
2022/06/07 03:00:26;;;;;;;2.73;2.60;;;;;;;15.93;100.00;96561.22;5048147;28;20207;-56
2022/06/07 03:02:54;;;;;;;2.30;2.20;;;;;;;15.79;100.00;96554.00;5049122;28;20715;-56
2022/06/07 03:05:21;;;;;;;3.00;2.70;;;;;;;15.81;100.00;96557.28;5049433;28;20215;-58
2022/06/07 03:07:50;;;;;;;2.97;2.47;;;;;;;15.75;100.00;96567.84;5050054;28;20577;-58
2022/06/07 03:10:18;;;;;;;2.93;2.63;;;;;;;15.78;100.00;96562.16;5046027;28;20200;-57
2022/06/07 03:12:45;;;;;;;3.23;2.90;;;;;;;15.77;100.00;96568.47;5046669;28;20290;-57
2022/06/07 03:15:13;;;;;;;2.83;2.63;;;;;;;15.76;100.00;96570.34;5047302;28;20234;-57
2022/06/07 03:17:40;;;;;;;3.07;2.87;;;;;;;15.69;100.00;96580.06;5046311;28;20218;-55
2022/06/07 03:20:10;;;;;;;3.43;2.60;;;;;;;15.70;100.00;96578.19;5054773;28;20290;-52
2022/06/07 03:22:37;;;;;;;3.07;2.77;;;;;;;15.68;100.00;96573.06;5054705;28;20594;-52
2022/06/07 03:25:07;;;;;;;2.90;2.70;;;;;;;15.73;100.00;96578.66;5050057;28;20289;-51
2022/06/07 03:27:35;;;;;;;2.87;2.67;;;;;;;15.67;100.00;96589.22;5046300;28;20196;-54
2022/06/07 03:30:01;;;;;;;3.00;2.80;;;;;;;15.62;100.00;96597.75;5045628;28;20227;-52
2022/06/07 03:32:28;;;;;;;3.20;2.90;;;;;;;15.64;100.00;96598.41;5050060;28;20303;-51
2022/06/07 03:34:55;;;;;;;3.43;2.80;;;;;;;15.68;100.00;96597.03;5049655;28;20668;-51
2022/06/07 03:37:23;;;;;;;3.27;2.97;;;;;;;15.65;100.00;96594.75;5048962;28;20286;-52
2022/06/07 03:39:50;;;;;;;4.10;2.70;;;;;;;15.62;100.00;96594.25;5047555;28;20290;-52
2022/06/07 03:42:19;;;;;;;3.60;3.30;;;;;;;15.55;100.00;96596.78;5051560;28;20609;-52
2022/06/07 03:44:48;;;;;;;3.20;3.00;;;;;;;15.52;100.00;96598.97;5050591;28;20226;-52
2022/06/07 03:47:15;;;;;;;3.23;2.97;;;;;;;15.48;100.00;96601.09;5046528;28;20255;-53
2022/06/07 03:49:44;;;;;;;3.50;3.30;;;;;;;15.45;100.00;96593.47;5048532;28;20290;-51
2022/06/07 03:52:11;;;;;;;2.80;2.60;;;;;;;15.45;100.00;96591.63;5052226;28;20257;-53
2022/06/07 03:54:39;;;;;;;3.67;3.37;;;;;;;15.41;100.00;96597.47;5045659;28;20227;-53
2022/06/07 03:57:07;;;;;;;3.67;3.07;;;;;;;15.43;100.00;96598.16;5046169;28;20532;-52
2022/06/07 03:59:34;;;;;;;3.27;2.97;;;;;;;15.45;100.00;96604.94;5051903;28;20261;-53
2022/06/07 04:02:01;;;;;;;2.87;2.67;;;;;;;15.46;100.00;96605.78;5048016;28;20620;-53
2022/06/07 04:04:29;;;;;;;3.43;2.70;;;;;;;15.50;100.00;96607.13;5045697;28;20256;-52
2022/06/07 04:09:41;;;;;;;2.90;2.70;;;;;;;15.48;100.00;96611.75;5046501;28;20206;-52
2022/06/07 04:12:09;;;;;;;2.97;2.50;;;;;;;15.42;100.00;96607.13;5046490;28;20231;-52
2022/06/07 04:14:37;;;;;;;3.03;2.80;;;;;;;15.44;100.00;96611.28;5046584;28;20221;-53
2022/06/07 04:17:05;;;;;;;3.10;2.80;;;;;;;15.43;100.00;96612.31;5044902;28;20225;-53
2022/06/07 04:19:34;;;;;;;3.00;2.40;;;;;;;15.48;100.00;96616.28;5049628;28;20258;-53
2022/06/07 04:22:01;;;;;;;2.73;2.53;;;;;;;15.46;100.00;96616.44;5052004;28;20203;-52
2022/06/07 04:24:28;;;;;;;2.43;2.33;;;;;;;15.42;100.00;96617.78;5057202;28;20238;-53
2022/06/07 04:26:56;;;;;;;2.80;2.60;;;;;;;15.41;100.00;96621.44;5047466;28;20682;-52
2022/06/07 04:29:23;;;;;;;3.63;2.90;;;;;;;15.38;100.00;96619.16;5045638;28;20636;-52
2022/06/07 04:31:50;;;;;;;3.20;2.40;;;;;;;15.41;100.00;96626.78;5046660;28;20195;-53
2022/06/07 04:34:18;;;;;;;2.67;2.47;;;;;;;15.39;100.00;96632.31;5050083;28;20217;-53
2022/06/07 04:36:45;;;;;;;3.40;2.35;;;;;;;15.41;100.00;96624.13;5047338;28;20219;-53
2022/06/07 04:39:12;;;;;;;2.37;2.27;;;;;;;15.42;100.00;96628.47;5051918;28;20245;-53
2022/06/07 04:41:39;;;;;;;2.30;2.20;;;;;;;15.41;100.00;96637.44;5048976;28;20196;-52
2022/06/07 04:44:08;;;;;;;2.70;2.50;;;;;;;15.43;100.00;96632.78;5045119;28;20314;-52
2022/06/07 04:46:35;;;;;;;2.10;2.00;;;;;;;15.47;100.00;96639.44;5051469;28;20279;-51
2022/06/07 04:49:04;;;;;;;2.60;2.40;;;;;;;15.49;100.00;96642.78;5046164;28;20241;-52
2022/06/07 04:51:35;;;;;;;2.30;2.20;;;;;;;15.52;100.00;96637.09;5044827;28;20632;-52
2022/06/07 04:54:03;;;;;;;3.13;1.90;;;;;;;15.49;100.00;96636.63;5047305;28;20199;-52
2022/06/07 04:56:31;;;;;;;1.90;1.80;;;;;;;15.51;100.00;96635.47;5050554;28;20306;-52
2022/06/07 04:59:00;;;;;;;2.30;2.03;;;;;;;15.56;100.00;96638.41;5051902;28;20282;-51
2022/06/07 05:01:30;;;;;;;2.25;2.10;;;;;;;15.59;100.00;96639.94;5055852;28;20298;-52
2022/06/07 05:04:00;;;;;;;2.60;2.40;;;;;;;15.63;100.00;96639.38;5057495;28;20203;-52
2022/06/07 05:06:28;;;;;;;2.58;2.40;;;;;;;15.65;100.00;96650.72;5058997;28;20203;-52
2022/06/07 05:08:58;;;;;;;2.45;2.35;;;;;;;15.68;100.00;96657.53;5053937;28;20231;-53
2022/06/07 05:11:27;;;;;;;2.90;2.27;;;;;;;15.67;100.00;96654.03;5050234;28;20321;-52
2022/06/07 05:13:55;;;;;;;3.50;2.57;;;;;;;15.67;100.00;96663.84;5052765;28;20617;-53
2022/06/07 05:16:21;;;;;;;2.90;2.67;;;;;;;15.69;100.00;96662.69;5057659;28;20233;-52
2022/06/07 05:18:50;;;;;;;2.63;2.42;;;;;;;15.74;100.00;96664.81;5050327;28;20295;-52
2022/06/07 05:21:17;;;;;;;2.25;2.15;;;;;;;15.81;100.00;96666.63;5058824;28;20281;-53
2022/06/07 05:23:46;;;;;;;2.13;2.03;;;;;;;15.78;100.00;96664.31;5062967;28;20196;-52
2022/06/07 05:26:18;;;;;;;2.60;2.30;;;;;;;15.80;100.00;96672.16;5066732;28;20560;-52
2022/06/07 05:28:45;;;;;;;2.00;1.90;;;;;;;15.89;100.00;96671.91;5060214;28;20227;-52
2022/06/07 05:31:11;;;;;;;2.47;2.30;;;;;;;15.88;100.00;96672.09;5051802;28;20227;-53
2022/06/07 05:33:41;;;;;;;2.80;2.60;;;;;;;15.88;100.00;96680.91;5053760;28;20231;-52
2022/06/07 05:36:09;;;;;;;2.83;2.53;;;;;;;15.95;100.00;96686.38;5060956;28;20648;-53
2022/06/07 05:38:37;;;;;;;2.70;2.50;;;;;;;15.90;100.00;96683.44;5066549;28;20223;-52
2022/06/07 05:41:04;;;;;;;2.42;2.17;;;;;;;15.92;100.00;96684.91;5057820;28;20231;-53
2022/06/07 05:43:31;;;;;;;2.30;2.20;;;;;;;15.88;100.00;96675.59;5062950;28;20299;-52
2022/06/07 05:45:58;;;;;;;2.65;2.45;;;;;;;15.87;100.00;96683.78;5056067;28;20219;-52
2022/06/07 05:48:26;;;;;;;2.27;2.17;;;;;;;15.86;100.00;96676.78;5064219;28;20239;-52
2022/06/07 05:50:53;;;;;;;2.33;2.17;;;;;;;15.82;100.00;96681.63;5046892;28;20287;-52
2022/06/07 05:53:26;;;;;;;2.37;2.17;;;;;;;15.90;100.00;96684.25;5051249;28;20299;-52
2022/06/07 05:55:54;;;;;;;2.00;1.90;;;;;;;15.98;100.00;96686.03;5047509;28;20551;-52
2022/06/07 05:58:20;;;;;;;2.25;1.88;;;;;;;16.03;100.00;96693.50;5049606;28;20217;-52
2022/06/07 06:00:47;;;;;;;1.90;1.80;;;;;;;16.02;100.00;96694.50;5045597;28;20286;-52
2022/06/07 06:03:14;;;;;;;1.63;1.60;;;;;;;16.13;100.00;96697.63;5051119;28;20221;-52
2022/06/07 06:05:45;;;;;;;2.00;1.90;;;;;;;16.11;100.00;96690.81;5049591;28;20286;-52
2022/06/07 06:11:08;;;;;;;2.08;1.98;;;;;;;16.18;100.00;96691.75;5052104;28;20363;-52
2022/06/07 06:13:35;;;;;;;2.13;1.92;;;;;;;16.16;100.00;96696.41;5049292;28;20222;-52
2022/06/07 06:16:03;;;;;;;2.50;2.30;;;;;;;16.19;100.00;96701.44;5050605;28;20440;-53
2022/06/07 06:18:30;;;;;;;2.33;2.03;;;;;;;16.22;100.00;96703.75;5048667;28;20286;-52
2022/06/07 06:20:56;;;;;;;1.90;1.80;;;;;;;16.25;100.00;96698.88;5049310;28;20441;-52
2022/06/07 06:23:26;;;;;;;2.10;1.83;;;;;;;16.27;100.00;96694.19;5048111;28;20231;-52
2022/06/07 06:25:52;;;;;;;2.05;1.73;;;;;;;16.26;100.00;96691.72;5044917;28;20230;-52
2022/06/07 06:28:21;;;;;;;1.90;1.80;;;;;;;16.28;100.00;96695.84;5046732;28;20587;-54
2022/06/07 06:30:48;;;;;;;1.88;1.77;;;;;;;16.33;100.00;96698.81;5051218;28;20217;-52
2022/06/07 06:33:16;;;;;;;2.00;1.90;;;;;;;16.32;100.00;96705.19;5045907;28;20199;-52
2022/06/07 06:35:48;;;;;;;2.93;1.80;;;;;;;16.41;100.00;96700.59;5048517;28;20226;-52
2022/06/07 06:38:15;;;;;;;1.50;1.50;;;;;;;16.49;100.00;96700.53;5046820;28;20199;-52
2022/06/07 06:40:45;;;;;;;1.67;1.58;;;;;;;16.42;100.00;96695.09;5046470;28;20199;-52
2022/06/07 06:43:15;;;;;;;2.63;1.67;;;;;;;16.51;100.00;96708.38;5047869;28;20235;-52
2022/06/07 06:45:44;;;;;;;2.05;1.85;;;;;;;16.50;100.00;96702.22;5047892;28;20290;-52
2022/06/07 06:48:13;;;;;;;1.75;1.65;;;;;;;16.61;100.00;96709.84;5046437;28;20283;-52
2022/06/07 06:50:39;;;;;;;2.00;1.90;;;;;;;16.67;100.00;96702.94;5045053;28;20707;-52
2022/06/07 06:53:06;;;;;;;1.83;1.73;;;;;;;16.69;100.00;96701.75;5045679;28;20283;-53
2022/06/07 06:55:33;;;;;;;2.13;2.00;;;;;;;16.80;100.00;96708.50;5046754;28;20271;-53
2022/06/07 06:58:00;;;;;;;2.63;1.95;;;;;;;16.76;100.00;96702.69;5051467;28;20249;-52
2022/06/07 07:00:27;;;;;;;2.28;2.08;;;;;;;16.82;100.00;96707.34;5047152;28;20286;-52
2022/06/07 07:02:55;;;;;;;2.45;1.70;;;;;;;16.91;100.00;96710.75;5045412;28;20313;-52
2022/06/07 07:05:23;;;;;;;2.60;2.40;;;;;;;17.01;100.00;96705.97;5050019;28;20416;-52
2022/06/07 07:07:53;;;;;;;2.40;2.30;;;;;;;17.23;100.00;96714.94;5047564;28;20208;-52
2022/06/07 07:10:20;;;;;;;2.40;2.30;;;;;;;17.30;100.00;96715.88;5053714;28;20199;-52
2022/06/07 07:12:47;;;;;;;2.10;1.95;;;;;;;17.39;100.00;96717.47;5040397;28;20310;-51
2022/06/07 07:15:14;;;;;;;2.97;2.70;;;;;;;17.50;100.00;96719.66;5046793;28;20200;-53
2022/06/07 07:17:41;;;;;;;2.67;2.45;;;;;;;17.58;100.00;96722.28;5048234;28;20322;-52
2022/06/07 07:20:11;;;;;;;2.40;2.20;;;;;;;17.54;100.00;96720.94;5052026;28;20223;-52
2022/06/07 07:22:38;;;;;;;2.30;2.08;;;;;;;17.45;100.00;96723.91;5054228;28;20556;-52
2022/06/07 07:25:06;;;;;;;2.88;2.58;;;;;;;17.45;100.00;96722.06;5046350;28;20282;-52
2022/06/07 07:27:33;;;;;;;2.88;2.08;;;;;;;17.41;100.00;96731.47;5051526;28;20694;-53
2022/06/07 07:30:03;;;;;;;2.08;1.70;;;;;;;17.39;100.00;96726.28;5048127;28;20282;-52
2022/06/07 07:32:30;;;;;;;2.47;2.38;;;;;;;17.33;100.00;96736.88;5049068;28;20278;-52
2022/06/07 07:34:57;;;;;;;2.75;2.65;;;;;;;17.31;100.00;96738.94;5046734;28;20672;-52
2022/06/07 07:37:25;;;;;;;3.30;3.10;;;;;;;17.24;100.00;96725.47;5059028;28;20238;-52
2022/06/07 07:39:52;;;;;;;3.55;3.35;;;;;;;17.22;100.00;96729.31;5070599;28;20183;-52
2022/06/07 07:42:19;;;;;;;3.40;3.20;;;;;;;17.24;100.00;96732.66;5076548;28;20194;-52
2022/06/07 07:44:48;;;;;;;4.60;3.75;;;;;;;17.24;100.00;96727.31;5053454;28;20624;-51
2022/06/07 07:47:14;;;;;;;3.20;3.00;;;;;;;17.30;100.00;96731.91;5050383;28;20199;-52
2022/06/07 07:49:42;;;;;;;2.92;2.83;;;;;;;17.28;100.00;96723.25;5046648;28;20353;-52
2022/06/07 07:52:09;;;;;;;3.45;3.15;;;;;;;17.24;100.00;96721.97;5050001;28;20256;-52
2022/06/07 07:54:37;;;;;;;3.40;2.75;;;;;;;17.23;100.00;96722.97;5047720;28;20302;-52
2022/06/07 07:57:04;;;;;;;2.92;2.83;;;;;;;17.22;100.00;96716.78;5054435;28;20306;-52
2022/06/07 07:59:31;;;;;;;2.85;2.70;;;;;;;17.19;100.00;96719.00;5046008;28;20286;-52
2022/06/07 08:02:00;;;;;;;3.05;2.92;;;;;;;17.29;100.00;96730.25;5047819;28;20298;-52
2022/06/07 08:04:26;;;;;;;2.88;2.70;;;;;;;17.24;100.00;96728.13;5042540;28;20288;-52
2022/06/07 08:06:53;;;;;;;2.85;2.67;;;;;;;17.40;100.00;96727.13;5052023;28;20234;-52
2022/06/07 08:09:22;;;;;;;3.10;2.90;;;;;;;17.43;100.00;96729.44;5048535;28;20700;-52
2022/06/07 08:11:50;;;;;;;2.80;2.70;;;;;;;17.49;100.00;96726.03;5050109;28;20226;-52
2022/06/07 08:14:18;;;;;;;2.92;2.72;;;;;;;17.47;99.25;96725.38;5050294;28;20205;-52
2022/06/07 08:16:45;;;;;;;2.95;2.75;;;;;;;17.57;100.00;96717.13;5050016;28;20226;-53
2022/06/07 08:19:12;;;;;;;2.70;2.50;;;;;;;17.70;100.00;96712.78;5045470;28;20615;-53
2022/06/07 08:21:42;;;;;;;3.20;3.00;;;;;;;17.85;100.00;96716.25;5049779;28;20195;-52
2022/06/07 08:24:09;;;;;;;2.60;2.40;;;;;;;17.96;99.84;96711.47;5046332;28;20202;-52
2022/06/07 08:26:37;;;;;;;2.90;2.70;;;;;;;18.10;98.56;96710.63;5041632;28;20192;-52
2022/06/07 08:29:08;;;;;;;2.42;2.20;;;;;;;18.27;97.28;96710.22;5044246;28;20623;-52
2022/06/07 08:31:36;;;;;;;2.30;2.15;;;;;;;18.34;95.20;96702.25;5044986;28;20213;-52
2022/06/07 08:39:34;;;;;;;1.98;1.88;;;;;;;19.04;86.84;96690.75;5045106;28;20253;-52
2022/06/07 08:42:03;;;;;;;1.65;1.52;;;;;;;19.23;88.51;96696.28;5044467;28;20198;-52
2022/06/07 08:44:39;;;;;;;2.38;2.20;;;;;;;19.46;87.87;96696.03;5045334;28;20314;-52
2022/06/07 08:47:12;;;;;;;3.33;2.10;;;;;;;19.46;87.94;96687.16;5046993;28;20290;-52
2022/06/07 08:49:38;;;;;;;1.80;1.73;;;;;;;19.51;85.39;96688.22;5047556;28;20641;-52
2022/06/07 08:52:14;;;;;;;2.35;1.75;;;;;;;19.61;81.89;96688.69;5063167;28;20289;-52
2022/06/07 08:54:50;;;;;;;2.03;1.70;;;;;;;19.63;84.41;96686.63;5059498;28;20229;-53
2022/06/07 08:57:23;;;;;;;1.70;1.60;;;;;;;19.49;86.62;96684.06;5048007;28;20226;-53
2022/06/07 08:59:55;;;;;;;1.50;1.40;;;;;;;19.25;88.95;96686.16;5045466;28;20660;-52
2022/06/07 09:02:49;;;;;;;2.10;2.00;;;;;;;19.24;91.72;96689.88;5044392;28;20279;-52
2022/06/07 09:05:16;;;;;;;1.52;1.42;;;;;;;19.31;85.95;96677.34;5024613;28;20306;-52
2022/06/07 09:07:43;;;;;;;1.40;1.13;;;;;;;19.31;84.06;96687.22;5048797;28;20203;-52
2022/06/07 09:12:59;;;;;;;1.50;1.10;;;;;;;19.13;78.33;96689.59;5050052;28;20528;-52
2022/06/07 09:15:30;;;;;;;1.65;1.23;;;;;;;19.00;81.22;96678.75;5044643;28;20587;-53
2022/06/07 09:17:58;;;;;;;1.80;1.15;;;;;;;19.00;84.15;96678.75;5047471;28;20229;-52
2022/06/07 09:20:28;;;;;;;1.30;1.20;;;;;;;19.06;80.73;96678.81;5051456;28;20302;-53
2022/06/07 09:22:57;;;;;;;1.42;1.33;;;;;;;19.08;81.03;96667.91;5049762;28;20294;-53
2022/06/07 09:25:27;;;;;;;1.92;1.00;;;;;;;19.03;83.21;96673.00;5048655;28;20207;-53
2022/06/07 09:27:57;;;;;;;1.45;1.30;;;;;;;19.10;83.99;96679.25;5045644;28;20204;-53
2022/06/07 09:30:31;;;;;;;1.40;1.30;;;;;;;19.13;84.82;96679.69;5045075;28;20203;-53
2022/06/07 09:32:58;;;;;;;1.27;1.23;;;;;;;19.15;82.93;96682.19;5045034;28;20260;-52
2022/06/07 09:35:36;;;;;;;1.67;1.58;;;;;;;19.28;84.12;96672.38;5045629;28;20688;-52
2022/06/07 09:38:06;;;;;;;2.25;1.10;;;;;;;19.38;83.77;96672.00;5044172;28;20207;-52
2022/06/07 09:40:34;;;;;;;1.65;1.27;;;;;;;19.78;81.96;96668.56;5045619;28;20192;-52
2022/06/07 09:43:14;;;;;;;1.88;1.38;;;;;;;19.94;83.27;96666.56;5047415;28;20322;-53
2022/06/07 09:45:54;;;;;;;1.95;1.40;;;;;;;20.07;83.51;96663.91;5047737;28;20661;-52
2022/06/07 09:48:27;;;;;;;1.45;1.35;;;;;;;20.21;81.09;96658.38;5050248;28;20279;-52
2022/06/07 09:51:01;;;;;;;1.17;1.17;;;;;;;20.42;76.98;96659.28;5052818;28;20207;-52
2022/06/07 09:53:38;;;;;;;0.80;0.80;;;;;;;20.88;79.09;96659.31;5068871;28;20192;-54
2022/06/07 09:56:25;;;;;;;1.60;1.38;;;;;;;21.42;75.71;96661.78;5069486;28;20179;-52
2022/06/07 09:59:00;;;;;;;2.58;1.10;;;;;;;21.69;75.36;96653.44;5075017;28;20198;-52
2022/06/07 10:01:31;;;;;;;3.00;1.80;;;;;;;21.90;73.62;96648.78;5075073;28;20194;-53
2022/06/07 10:04:04;;;;;;;4.35;1.77;;;;;;;22.09;71.61;96647.91;5056232;28;20623;-54
2022/06/07 10:06:36;;;;;;;2.95;1.63;;;;;;;22.04;73.67;96639.66;5060833;28;20219;-53
2022/06/07 10:09:13;;;;;;;1.73;1.50;;;;;;;21.67;74.00;96639.38;5051528;28;20270;-52
2022/06/07 10:11:47;;;;;;;3.08;1.30;;;;;;;21.77;73.88;96633.53;5061158;28;20707;-54
2022/06/07 10:14:24;;;;;;;1.42;1.33;;;;;;;21.85;72.94;96627.91;5051268;28;20845;-53
2022/06/07 10:17:00;;;;;;;1.70;1.60;;;;;;;22.08;73.53;96627.41;5047914;28;20322;-53
2022/06/07 10:19:38;;;;;;;1.38;1.27;;;;;;;21.70;75.29;96627.34;5054914;28;20277;-52
2022/06/07 10:22:45;;;;;;;1.30;1.20;;;;;;;21.66;74.98;96615.34;5047727;28;20199;-53
2022/06/07 10:25:15;;;;;;;0.90;0.90;;;;;;;21.95;69.35;96627.47;5010359;28;20272;-52
2022/06/07 10:27:51;;;;;;;1.40;1.30;;;;;;;22.17;70.82;96623.44;5008729;28;20267;-51
2022/06/07 10:30:30;;;;;;;1.40;1.20;;;;;;;21.80;73.08;96619.63;5020343;28;20233;-52
2022/06/07 10:33:23;;;;;;;1.50;1.40;;;;;;;21.78;75.14;96614.50;5030109;28;20211;-52
2022/06/07 10:35:55;;;;;;;1.33;1.20;;;;;;;22.20;74.33;96609.53;5043268;28;20203;-53
2022/06/07 10:38:33;;;;;;;1.45;1.35;;;;;;;21.81;73.71;96603.28;5071292;28;20215;-53
2022/06/07 10:41:05;;;;;;;2.25;1.30;;;;;;;21.93;73.19;96616.13;5071816;28;20203;-51
2022/06/07 10:43:36;;;;;;;1.50;1.40;;;;;;;21.60;71.79;96608.13;5071804;28;20243;-52
2022/06/07 10:46:03;;;;;;;1.77;1.33;;;;;;;21.45;72.21;96605.69;5074107;28;20198;-52
2022/06/07 10:48:35;;;;;;;1.13;1.10;;;;;;;21.39;72.53;96609.25;5070440;28;20202;-52
2022/06/07 10:51:07;;;;;;;1.20;1.20;;;;;;;21.23;72.94;96605.13;5070276;28;20227;-53
2022/06/07 10:53:47;;;;;;;1.00;1.00;;;;;;;21.35;73.93;96599.94;5071137;28;20182;-52
2022/06/07 10:56:17;;;;;;;2.25;1.50;;;;;;;21.09;75.68;96594.56;5069263;28;20195;-52
2022/06/07 10:58:46;;;;;;;1.67;1.30;;;;;;;20.94;73.54;96584.03;5068827;28;20222;-52
2022/06/07 11:01:15;;;;;;;1.40;1.30;;;;;;;20.88;74.40;96586.75;5051264;28;20206;-53
2022/06/07 11:04:04;;;;;;;1.63;1.20;;;;;;;20.79;76.79;96584.28;5050811;28;20203;-51
2022/06/07 11:09:25;;;;;;;1.20;1.20;;;;;;;20.62;74.79;96592.94;5047153;28;20198;-51
2022/06/07 11:11:56;;;;;;;2.35;1.60;;;;;;;20.30;75.95;96594.59;5047212;28;20231;-53
2022/06/07 11:14:49;;;;;;;1.15;1.15;;;;;;;20.45;77.38;96589.84;5048357;28;20245;-51
2022/06/07 11:17:22;;;;;;;1.45;1.35;;;;;;;21.00;77.43;96593.97;5045174;28;20665;-52
2022/06/07 11:19:52;;;;;;;2.88;1.35;;;;;;;20.91;73.50;96591.69;5048257;28;20266;-54
2022/06/07 11:22:23;;;;;;;0.98;0.98;;;;;;;20.53;72.47;96592.34;5043323;28;20295;-52
2022/06/07 11:24:56;;;;;;;1.80;0.98;;;;;;;20.21;73.19;96582.38;5048729;28;20290;-52
2022/06/07 11:27:24;;;;;;;1.45;1.00;;;;;;;20.07;77.61;96599.47;5046643;28;20616;-53
2022/06/07 11:30:19;;;;;;;1.30;1.23;;;;;;;19.83;77.85;96596.34;5047927;28;20206;-52
2022/06/07 11:32:53;;;;;;;1.08;1.02;;;;;;;19.67;79.18;96594.00;5047650;28;20286;-53
2022/06/07 11:35:51;;;;;;;1.40;1.30;;;;;;;19.38;81.30;96587.03;5045963;28;20198;-52
2022/06/07 11:38:54;;;;;;;1.83;1.10;;;;;;;19.18;87.02;96586.09;5048574;28;20216;-52
2022/06/07 11:41:42;;;;;;;1.10;1.10;;;;;;;19.15;86.17;96585.66;5045834;28;20286;-51
2022/06/07 11:44:50;;;;;;;1.58;1.48;;;;;;;18.94;90.61;96591.09;5045309;28;20266;-52
2022/06/07 11:47:30;;;;;;;1.27;1.20;;;;;;;18.85;91.21;96590.41;5044205;28;20205;-52
2022/06/07 11:50:00;;;;;;;2.42;1.20;;;;;;;18.57;87.65;96593.09;5046009;28;20574;-52
2022/06/07 11:52:30;;;;;;;1.35;1.17;;;;;;;18.38;90.13;96596.41;5047767;28;20207;-52
2022/06/07 11:55:00;;;;;;;1.92;1.33;;;;;;;18.37;95.38;96587.56;5047662;28;20208;-52
2022/06/07 11:57:35;;;;;;;1.35;1.27;;;;;;;18.25;95.70;96589.09;5048741;28;20212;-52
2022/06/07 12:00:26;;;;;;;1.58;1.55;;;;;;;18.20;97.86;96591.53;5042951;28;20264;-52
2022/06/07 12:03:26;;;;;;;1.70;1.58;;;;;;;18.21;98.20;96592.34;5045960;28;20203;-52